Terminal Aerodrome Forecast
Issued by NWS Shreveport, LA

Home | Current Version | Previous Version | Text Only | Print | Product List | Glossary On
Versions: 1 2 3 4 5 6 7 8 9 10 11 12 13 14 15 16 17 18 19
000
FTUS44 KSHV 240500
TAFMLU
TAF
KMLU 240530Z 2406/2506 00000KT P6SM SKC
     FM240800 VRB03KT 4SM BR SKC
     FM241300 01005KT P6SM SCT030=

USA.gov is the U.S. government's official web portal to all federal, state and local government web resources and services.